createdAt,value
2022-08-07T09:26:22.093Z,102205.44
2022-08-07T09:30:00.608Z,102204.34
2022-08-07T09:32:26.414Z,102188.72
2022-08-07T09:36:04.168Z,102201.53
2022-08-07T09:38:28.964Z,102187.84
2022-08-07T09:41:20.112Z,102194.06
2022-08-07T09:44:19.433Z,102196.56
2022-08-07T09:47:52.709Z,102196.22
2022-08-07T09:50:26.403Z,102183.63
2022-08-07T09:53:06.278Z,102194.44
2022-08-07T09:56:06.593Z,102183.16
2022-08-07T09:59:44.583Z,102170.66
2022-08-07T10:04:05.009Z,102170.31
2022-08-07T10:06:54.011Z,102169.22
2022-08-07T10:10:06.635Z,102173.91
2022-08-07T10:13:54.908Z,102153.44
2022-08-07T10:16:59.493Z,102167.16
2022-08-07T10:19:58.770Z,102175.66
2022-08-07T10:23:14.190Z,102162.69
2022-08-07T10:26:09.359Z,102165.44
2022-08-07T10:29:10.622Z,102171.94
2022-08-07T10:32:03.231Z,102169.88
2022-08-07T10:35:01.953Z,102165.09
2022-08-07T10:38:20.839Z,102181.03
2022-08-07T10:41:15.257Z,102169.44
2022-08-07T10:44:38.044Z,102166.03
2022-08-07T10:47:53.176Z,102168.38
2022-08-07T10:50:37.901Z,102164.97
2022-08-07T10:53:44.182Z,102163.66
2022-08-07T10:56:38.471Z,102159.59
2022-08-07T10:59:22.378Z,102157.03
2022-08-07T11:02:12.392Z,102157.06
2022-08-07T11:05:48.657Z,102149.66
2022-08-07T11:08:43.093Z,102138.63
2022-08-07T11:11:28.388Z,102135.63
2022-08-07T11:14:57.474Z,102136.25
2022-08-07T11:17:23.431Z,102138.97
2022-08-07T11:20:22.594Z,102135.41
2022-08-07T11:23:26.257Z,102131.09
2022-08-07T11:26:20.972Z,102134.47
2022-08-07T11:29:22.337Z,102138.19
2022-08-07T11:32:14.347Z,102125.34
2022-08-07T11:35:09.453Z,102139.56
2022-08-07T11:38:17.424Z,102133.47
2022-08-07T11:41:02.221Z,102144.97
2022-08-07T11:44:10.967Z,102146.00
2022-08-07T11:47:04.151Z,102142.44
2022-08-07T11:50:32.384Z,102140.53
2022-08-07T11:53:35.259Z,102143.53
2022-08-07T11:56:31.829Z,102142.16
